sensor_id;sensor_type;location;lat;lon;timestamp;P1;durP1;ratioP1;P2;durP2;ratioP2
27225;SDS011;14732;51.074;3.788;2022-12-18T00:01:12;83.35;;;33.55;;
27225;SDS011;14732;51.074;3.788;2022-12-18T00:03:40;91.35;;;35.90;;
27225;SDS011;14732;51.074;3.788;2022-12-18T00:06:06;89.13;;;34.50;;
27225;SDS011;14732;51.074;3.788;2022-12-18T00:08:31;84.53;;;33.35;;
27225;SDS011;14732;51.074;3.788;2022-12-18T00:11:03;85.05;;;34.95;;
27225;SDS011;14732;51.074;3.788;2022-12-18T00:13:29;79.13;;;31.90;;
27225;SDS011;14732;51.074;3.788;2022-12-18T00:15:55;84.32;;;32.40;;
27225;SDS011;14732;51.074;3.788;2022-12-18T00:18:25;81.13;;;30.15;;
27225;SDS011;14732;51.074;3.788;2022-12-18T00:20:51;80.88;;;31.35;;
27225;SDS011;14732;51.074;3.788;2022-12-18T00:23:17;72.28;;;28.15;;
27225;SDS011;14732;51.074;3.788;2022-12-18T00:25:42;83.53;;;31.60;;
27225;SDS011;14732;51.074;3.788;2022-12-18T00:28:08;67.72;;;26.70;;
27225;SDS011;14732;51.074;3.788;2022-12-18T00:30:33;69.85;;;28.73;;
27225;SDS011;14732;51.074;3.788;2022-12-18T00:32:59;76.38;;;30.27;;
27225;SDS011;14732;51.074;3.788;2022-12-18T00:35:25;85.95;;;29.58;;
27225;SDS011;14732;51.074;3.788;2022-12-18T00:37:50;68.97;;;25.70;;
27225;SDS011;14732;51.074;3.788;2022-12-18T00:40:16;69.05;;;27.23;;
27225;SDS011;14732;51.074;3.788;2022-12-18T00:42:42;76.22;;;27.02;;
27225;SDS011;14732;51.074;3.788;2022-12-18T00:45:25;72.43;;;26.02;;
27225;SDS011;14732;51.074;3.788;2022-12-18T00:47:53;68.18;;;25.08;;
27225;SDS011;14732;51.074;3.788;2022-12-18T00:50:20;75.10;;;25.52;;
27225;SDS011;14732;51.074;3.788;2022-12-18T00:52:46;72.90;;;27.15;;
27225;SDS011;14732;51.074;3.788;2022-12-18T00:55:12;69.82;;;25.60;;
27225;SDS011;14732;51.074;3.788;2022-12-18T00:57:38;68.75;;;26.08;;
27225;SDS011;14732;51.074;3.788;2022-12-18T01:00:05;66.90;;;25.98;;
27225;SDS011;14732;51.074;3.788;2022-12-18T01:02:31;65.47;;;26.90;;
27225;SDS011;14732;51.074;3.788;2022-12-18T01:04:57;63.38;;;25.90;;
27225;SDS011;14732;51.074;3.788;2022-12-18T01:07:23;68.85;;;25.67;;
27225;SDS011;14732;51.074;3.788;2022-12-18T01:09:49;66.13;;;26.00;;
27225;SDS011;14732;51.074;3.788;2022-12-18T01:12:14;70.47;;;26.10;;
27225;SDS011;14732;51.074;3.788;2022-12-18T01:14:40;67.72;;;26.55;;
27225;SDS011;14732;51.074;3.788;2022-12-18T01:17:05;70.03;;;26.35;;
27225;SDS011;14732;51.074;3.788;2022-12-18T01:19:32;63.78;;;25.90;;
27225;SDS011;14732;51.074;3.788;2022-12-18T01:21:57;75.18;;;27.20;;
27225;SDS011;14732;51.074;3.788;2022-12-18T01:24:23;64.93;;;25.77;;
27225;SDS011;14732;51.074;3.788;2022-12-18T01:26:49;70.97;;;26.80;;
27225;SDS011;14732;51.074;3.788;2022-12-18T01:29:15;68.78;;;26.40;;
27225;SDS011;14732;51.074;3.788;2022-12-18T01:31:40;63.47;;;25.40;;
27225;SDS011;14732;51.074;3.788;2022-12-18T01:34:06;71.13;;;26.92;;
27225;SDS011;14732;51.074;3.788;2022-12-18T01:36:33;64.35;;;24.85;;
27225;SDS011;14732;51.074;3.788;2022-12-18T01:39:00;67.57;;;24.25;;
27225;SDS011;14732;51.074;3.788;2022-12-18T01:41:31;60.80;;;24.63;;
27225;SDS011;14732;51.074;3.788;2022-12-18T01:52:56;62.72;;;23.48;;
27225;SDS011;14732;51.074;3.788;2022-12-18T01:55:27;64.50;;;24.00;;
27225;SDS011;14732;51.074;3.788;2022-12-18T01:57:56;62.85;;;24.45;;
27225;SDS011;14732;51.074;3.788;2022-12-18T02:00:24;56.00;;;23.03;;
27225;SDS011;14732;51.074;3.788;2022-12-18T02:02:51;61.22;;;25.00;;
27225;SDS011;14732;51.074;3.788;2022-12-18T02:05:19;64.07;;;22.98;;
27225;SDS011;14732;51.074;3.788;2022-12-18T02:08:04;63.40;;;23.92;;
27225;SDS011;14732;51.074;3.788;2022-12-18T02:18:41;59.53;;;23.95;;
27225;SDS011;14732;51.074;3.788;2022-12-18T02:21:17;56.03;;;22.33;;
27225;SDS011;14732;51.074;3.788;2022-12-18T02:26:48;51.55;;;20.73;;
27225;SDS011;14732;51.074;3.788;2022-12-18T02:29:18;56.90;;;22.15;;
27225;SDS011;14732;51.074;3.788;2022-12-18T02:31:52;51.88;;;20.60;;
27225;SDS011;14732;51.074;3.788;2022-12-18T02:34:21;52.42;;;20.77;;
27225;SDS011;14732;51.074;3.788;2022-12-18T02:36:51;53.40;;;21.17;;
27225;SDS011;14732;51.074;3.788;2022-12-18T02:39:19;50.08;;;21.30;;
27225;SDS011;14732;51.074;3.788;2022-12-18T02:41:47;53.50;;;21.02;;
27225;SDS011;14732;51.074;3.788;2022-12-18T02:44:13;55.55;;;21.83;;
27225;SDS011;14732;51.074;3.788;2022-12-18T02:46:43;53.25;;;20.83;;
27225;SDS011;14732;51.074;3.788;2022-12-18T03:00:14;52.50;;;19.88;;
27225;SDS011;14732;51.074;3.788;2022-12-18T03:02:57;54.50;;;20.23;;
27225;SDS011;14732;51.074;3.788;2022-12-18T03:05:36;49.75;;;19.98;;
27225;SDS011;14732;51.074;3.788;2022-12-18T03:08:10;51.28;;;21.08;;
27225;SDS011;14732;51.074;3.788;2022-12-18T03:11:00;50.75;;;19.38;;
27225;SDS011;14732;51.074;3.788;2022-12-18T03:16:03;47.28;;;17.90;;
27225;SDS011;14732;51.074;3.788;2022-12-18T03:18:47;45.53;;;19.25;;
27225;SDS011;14732;51.074;3.788;2022-12-18T03:21:21;46.63;;;17.92;;
27225;SDS011;14732;51.074;3.788;2022-12-18T03:23:53;55.58;;;19.63;;
27225;SDS011;14732;51.074;3.788;2022-12-18T03:26:21;49.35;;;19.05;;
27225;SDS011;14732;51.074;3.788;2022-12-18T03:28:51;42.85;;;18.40;;
27225;SDS011;14732;51.074;3.788;2022-12-18T03:31:24;46.60;;;17.92;;
27225;SDS011;14732;51.074;3.788;2022-12-18T03:33:54;50.88;;;20.15;;
27225;SDS011;14732;51.074;3.788;2022-12-18T03:36:22;48.28;;;19.40;;
27225;SDS011;14732;51.074;3.788;2022-12-18T03:38:48;49.83;;;19.67;;
27225;SDS011;14732;51.074;3.788;2022-12-18T03:52:11;40.00;;;17.77;;
27225;SDS011;14732;51.074;3.788;2022-12-18T03:54:43;44.80;;;18.63;;
27225;SDS011;14732;51.074;3.788;2022-12-18T03:57:14;49.03;;;19.45;;
27225;SDS011;14732;51.074;3.788;2022-12-18T03:59:44;45.78;;;18.10;;
27225;SDS011;14732;51.074;3.788;2022-12-18T04:02:12;41.20;;;18.17;;
27225;SDS011;14732;51.074;3.788;2022-12-18T04:04:40;49.50;;;20.25;;
27225;SDS011;14732;51.074;3.788;2022-12-18T04:07:08;48.95;;;18.25;;
27225;SDS011;14732;51.074;3.788;2022-12-18T04:09:34;51.00;;;19.50;;
27225;SDS011;14732;51.074;3.788;2022-12-18T04:12:01;45.70;;;19.00;;
27225;SDS011;14732;51.074;3.788;2022-12-18T04:14:27;44.85;;;19.38;;
27225;SDS011;14732;51.074;3.788;2022-12-18T04:16:53;48.28;;;18.67;;
27225;SDS011;14732;51.074;3.788;2022-12-18T04:19:18;47.53;;;18.13;;
27225;SDS011;14732;51.074;3.788;2022-12-18T04:21:44;47.15;;;18.45;;
27225;SDS011;14732;51.074;3.788;2022-12-18T04:24:10;49.45;;;18.25;;
27225;SDS011;14732;51.074;3.788;2022-12-18T04:26:35;44.88;;;17.58;;
27225;SDS011;14732;51.074;3.788;2022-12-18T04:29:01;47.45;;;17.60;;
27225;SDS011;14732;51.074;3.788;2022-12-18T04:31:27;45.10;;;18.05;;
27225;SDS011;14732;51.074;3.788;2022-12-18T04:33:53;48.20;;;18.58;;
27225;SDS011;14732;51.074;3.788;2022-12-18T04:36:18;53.17;;;19.75;;
27225;SDS011;14732;51.074;3.788;2022-12-18T04:38:44;41.70;;;18.13;;
27225;SDS011;14732;51.074;3.788;2022-12-18T04:41:10;43.60;;;18.27;;
27225;SDS011;14732;51.074;3.788;2022-12-18T04:43:38;48.72;;;18.33;;
27225;SDS011;14732;51.074;3.788;2022-12-18T04:46:07;44.38;;;17.63;;
27225;SDS011;14732;51.074;3.788;2022-12-18T04:48:33;46.03;;;17.85;;
27225;SDS011;14732;51.074;3.788;2022-12-18T04:51:00;49.88;;;18.42;;
27225;SDS011;14732;51.074;3.788;2022-12-18T04:53:25;44.72;;;17.63;;
27225;SDS011;14732;51.074;3.788;2022-12-18T04:56:01;44.67;;;17.77;;
27225;SDS011;14732;51.074;3.788;2022-12-18T04:58:31;48.92;;;17.40;;
27225;SDS011;14732;51.074;3.788;2022-12-18T05:00:57;47.20;;;18.48;;
27225;SDS011;14732;51.074;3.788;2022-12-18T05:03:23;45.47;;;18.00;;
27225;SDS011;14732;51.074;3.788;2022-12-18T05:05:49;46.85;;;18.30;;
27225;SDS011;14732;51.074;3.788;2022-12-18T05:08:16;43.90;;;17.67;;
27225;SDS011;14732;51.074;3.788;2022-12-18T05:10:42;47.40;;;18.48;;
27225;SDS011;14732;51.074;3.788;2022-12-18T05:13:07;47.72;;;17.50;;
27225;SDS011;14732;51.074;3.788;2022-12-18T05:15:33;49.28;;;18.23;;
27225;SDS011;14732;51.074;3.788;2022-12-18T05:17:59;41.00;;;16.75;;
27225;SDS011;14732;51.074;3.788;2022-12-18T05:20:26;45.67;;;17.35;;
27225;SDS011;14732;51.074;3.788;2022-12-18T05:22:52;38.17;;;16.30;;
27225;SDS011;14732;51.074;3.788;2022-12-18T05:25:19;47.65;;;17.67;;
27225;SDS011;14732;51.074;3.788;2022-12-18T05:27:45;39.58;;;16.95;;
27225;SDS011;14732;51.074;3.788;2022-12-18T05:30:12;37.72;;;15.82;;
27225;SDS011;14732;51.074;3.788;2022-12-18T05:32:38;43.15;;;17.52;;
27225;SDS011;14732;51.074;3.788;2022-12-18T05:35:04;43.90;;;18.08;;
27225;SDS011;14732;51.074;3.788;2022-12-18T05:37:31;42.53;;;17.20;;
27225;SDS011;14732;51.074;3.788;2022-12-18T05:39:57;44.30;;;18.00;;
27225;SDS011;14732;51.074;3.788;2022-12-18T05:42:23;43.92;;;17.92;;
27225;SDS011;14732;51.074;3.788;2022-12-18T05:44:49;39.53;;;16.83;;
27225;SDS011;14732;51.074;3.788;2022-12-18T05:47:14;44.83;;;17.42;;
27225;SDS011;14732;51.074;3.788;2022-12-18T05:49:40;43.42;;;17.52;;
27225;SDS011;14732;51.074;3.788;2022-12-18T05:52:06;42.75;;;17.35;;
27225;SDS011;14732;51.074;3.788;2022-12-18T05:54:31;42.47;;;16.38;;
27225;SDS011;14732;51.074;3.788;2022-12-18T05:56:57;42.42;;;17.60;;
27225;SDS011;14732;51.074;3.788;2022-12-18T05:59:23;37.30;;;17.15;;
27225;SDS011;14732;51.074;3.788;2022-12-18T06:01:49;36.63;;;16.23;;
27225;SDS011;14732;51.074;3.788;2022-12-18T06:04:14;43.08;;;16.55;;
27225;SDS011;14732;51.074;3.788;2022-12-18T06:06:40;39.63;;;16.38;;
27225;SDS011;14732;51.074;3.788;2022-12-18T06:09:06;39.17;;;15.73;;
27225;SDS011;14732;51.074;3.788;2022-12-18T06:11:34;43.33;;;17.05;;
27225;SDS011;14732;51.074;3.788;2022-12-18T06:14:01;46.85;;;16.88;;
27225;SDS011;14732;51.074;3.788;2022-12-18T06:16:28;46.42;;;16.77;;
27225;SDS011;14732;51.074;3.788;2022-12-18T06:19:00;41.90;;;16.92;;
27225;SDS011;14732;51.074;3.788;2022-12-18T06:21:27;42.47;;;16.77;;
27225;SDS011;14732;51.074;3.788;2022-12-18T06:23:54;49.58;;;17.42;;
27225;SDS011;14732;51.074;3.788;2022-12-18T06:26:19;39.70;;;17.48;;
27225;SDS011;14732;51.074;3.788;2022-12-18T06:28:45;35.72;;;15.30;;
27225;SDS011;14732;51.074;3.788;2022-12-18T06:31:11;39.88;;;15.68;;
27225;SDS011;14732;51.074;3.788;2022-12-18T06:33:37;41.90;;;16.88;;
27225;SDS011;14732;51.074;3.788;2022-12-18T06:36:12;40.35;;;15.75;;
27225;SDS011;14732;51.074;3.788;2022-12-18T06:38:40;39.33;;;15.57;;
27225;SDS011;14732;51.074;3.788;2022-12-18T06:41:12;26.23;;;11.35;;
27225;SDS011;14732;51.074;3.788;2022-12-18T06:43:42;32.70;;;14.68;;
27225;SDS011;14732;51.074;3.788;2022-12-18T06:46:09;33.90;;;14.00;;
27225;SDS011;14732;51.074;3.788;2022-12-18T06:48:35;34.80;;;14.70;;
27225;SDS011;14732;51.074;3.788;2022-12-18T06:51:01;37.22;;;14.82;;
27225;SDS011;14732;51.074;3.788;2022-12-18T06:53:26;36.78;;;14.63;;
27225;SDS011;14732;51.074;3.788;2022-12-18T06:55:52;33.10;;;13.07;;
27225;SDS011;14732;51.074;3.788;2022-12-18T06:58:24;34.35;;;15.27;;
27225;SDS011;14732;51.074;3.788;2022-12-18T07:00:50;31.38;;;13.95;;
27225;SDS011;14732;51.074;3.788;2022-12-18T07:03:16;30.67;;;13.90;;
27225;SDS011;14732;51.074;3.788;2022-12-18T07:05:42;35.28;;;14.60;;
27225;SDS011;14732;51.074;3.788;2022-12-18T07:08:08;38.10;;;14.80;;
27225;SDS011;14732;51.074;3.788;2022-12-18T07:10:33;40.90;;;15.40;;
27225;SDS011;14732;51.074;3.788;2022-12-18T07:13:05;32.70;;;14.23;;
27225;SDS011;14732;51.074;3.788;2022-12-18T07:15:30;32.83;;;13.95;;
27225;SDS011;14732;51.074;3.788;2022-12-18T07:17:56;32.75;;;13.80;;
27225;SDS011;14732;51.074;3.788;2022-12-18T07:20:22;30.67;;;13.30;;
27225;SDS011;14732;51.074;3.788;2022-12-18T07:22:47;33.17;;;13.90;;
27225;SDS011;14732;51.074;3.788;2022-12-18T07:25:13;29.42;;;13.05;;
27225;SDS011;14732;51.074;3.788;2022-12-18T07:27:39;31.17;;;13.95;;
27225;SDS011;14732;51.074;3.788;2022-12-18T07:30:05;36.45;;;13.82;;
27225;SDS011;14732;51.074;3.788;2022-12-18T07:32:31;32.10;;;13.27;;
27225;SDS011;14732;51.074;3.788;2022-12-18T07:34:56;28.45;;;13.82;;
27225;SDS011;14732;51.074;3.788;2022-12-18T07:37:22;33.05;;;13.93;;
27225;SDS011;14732;51.074;3.788;2022-12-18T07:39:48;30.25;;;13.95;;
27225;SDS011;14732;51.074;3.788;2022-12-18T07:42:13;28.05;;;13.40;;
27225;SDS011;14732;51.074;3.788;2022-12-18T07:45:00;31.42;;;12.98;;
27225;SDS011;14732;51.074;3.788;2022-12-18T07:47:27;33.10;;;14.20;;
27225;SDS011;14732;51.074;3.788;2022-12-18T07:49:53;30.67;;;13.52;;
27225;SDS011;14732;51.074;3.788;2022-12-18T07:52:19;33.08;;;13.90;;
27225;SDS011;14732;51.074;3.788;2022-12-18T07:54:45;27.33;;;12.60;;
27225;SDS011;14732;51.074;3.788;2022-12-18T07:57:13;30.53;;;13.07;;
27225;SDS011;14732;51.074;3.788;2022-12-18T07:59:39;29.23;;;12.93;;
27225;SDS011;14732;51.074;3.788;2022-12-18T08:02:05;31.23;;;13.27;;
27225;SDS011;14732;51.074;3.788;2022-12-18T08:04:31;31.75;;;13.18;;
27225;SDS011;14732;51.074;3.788;2022-12-18T08:06:56;56.33;;;25.55;;
27225;SDS011;14732;51.074;3.788;2022-12-18T08:09:22;32.35;;;14.55;;
27225;SDS011;14732;51.074;3.788;2022-12-18T08:11:47;40.20;;;17.48;;
27225;SDS011;14732;51.074;3.788;2022-12-18T08:14:13;31.15;;;14.93;;
27225;SDS011;14732;51.074;3.788;2022-12-18T08:16:39;34.67;;;16.45;;
27225;SDS011;14732;51.074;3.788;2022-12-18T08:19:05;34.38;;;17.88;;
27225;SDS011;14732;51.074;3.788;2022-12-18T08:21:31;51.03;;;22.08;;
27225;SDS011;14732;51.074;3.788;2022-12-18T08:23:58;46.80;;;21.85;;
27225;SDS011;14732;51.074;3.788;2022-12-18T08:26:25;48.35;;;22.98;;
27225;SDS011;14732;51.074;3.788;2022-12-18T08:28:55;40.28;;;20.17;;
27225;SDS011;14732;51.074;3.788;2022-12-18T08:31:23;40.72;;;19.35;;
27225;SDS011;14732;51.074;3.788;2022-12-18T08:33:49;27.58;;;13.18;;
27225;SDS011;14732;51.074;3.788;2022-12-18T08:36:16;26.60;;;12.45;;
27225;SDS011;14732;51.074;3.788;2022-12-18T08:38:42;26.98;;;12.10;;
27225;SDS011;14732;51.074;3.788;2022-12-18T08:41:09;21.20;;;11.27;;
27225;SDS011;14732;51.074;3.788;2022-12-18T08:43:36;27.10;;;11.30;;
27225;SDS011;14732;51.074;3.788;2022-12-18T08:46:21;22.67;;;10.85;;
27225;SDS011;14732;51.074;3.788;2022-12-18T08:48:50;25.35;;;11.38;;
27225;SDS011;14732;51.074;3.788;2022-12-18T08:51:17;27.93;;;11.97;;
27225;SDS011;14732;51.074;3.788;2022-12-18T08:53:43;24.48;;;11.65;;
27225;SDS011;14732;51.074;3.788;2022-12-18T08:56:09;25.80;;;11.65;;
27225;SDS011;14732;51.074;3.788;2022-12-18T08:58:35;33.40;;;11.80;;
27225;SDS011;14732;51.074;3.788;2022-12-18T09:01:01;26.27;;;11.45;;
27225;SDS011;14732;51.074;3.788;2022-12-18T09:03:28;20.25;;;10.52;;
27225;SDS011;14732;51.074;3.788;2022-12-18T09:05:54;20.45;;;10.10;;
27225;SDS011;14732;51.074;3.788;2022-12-18T09:08:19;24.13;;;10.73;;
27225;SDS011;14732;51.074;3.788;2022-12-18T09:10:46;24.35;;;12.15;;
27225;SDS011;14732;51.074;3.788;2022-12-18T09:13:13;23.30;;;11.18;;
27225;SDS011;14732;51.074;3.788;2022-12-18T09:15:41;25.77;;;11.00;;
27225;SDS011;14732;51.074;3.788;2022-12-18T09:18:07;21.33;;;10.35;;
27225;SDS011;14732;51.074;3.788;2022-12-18T09:20:34;21.25;;;10.43;;
27225;SDS011;14732;51.074;3.788;2022-12-18T09:23:01;26.17;;;10.68;;
27225;SDS011;14732;51.074;3.788;2022-12-18T09:25:28;24.15;;;11.35;;
27225;SDS011;14732;51.074;3.788;2022-12-18T09:27:58;22.85;;;11.40;;
27225;SDS011;14732;51.074;3.788;2022-12-18T09:30:24;21.95;;;10.65;;
27225;SDS011;14732;51.074;3.788;2022-12-18T09:32:50;22.90;;;10.45;;
27225;SDS011;14732;51.074;3.788;2022-12-18T09:35:15;24.17;;;11.48;;
27225;SDS011;14732;51.074;3.788;2022-12-18T09:37:41;23.20;;;10.73;;
27225;SDS011;14732;51.074;3.788;2022-12-18T09:40:12;22.63;;;11.57;;
27225;SDS011;14732;51.074;3.788;2022-12-18T09:42:40;25.08;;;11.68;;
27225;SDS011;14732;51.074;3.788;2022-12-18T09:47:38;22.48;;;10.45;;
27225;SDS011;14732;51.074;3.788;2022-12-18T09:50:22;22.52;;;10.32;;
27225;SDS011;14732;51.074;3.788;2022-12-18T09:52:49;23.25;;;11.30;;
27225;SDS011;14732;51.074;3.788;2022-12-18T09:55:34;24.65;;;11.65;;
27225;SDS011;14732;51.074;3.788;2022-12-18T09:58:06;24.55;;;12.50;;
27225;SDS011;14732;51.074;3.788;2022-12-18T10:00:41;20.40;;;10.93;;
27225;SDS011;14732;51.074;3.788;2022-12-18T10:03:11;24.88;;;11.52;;
27225;SDS011;14732;51.074;3.788;2022-12-18T10:08:29;22.38;;;11.02;;
27225;SDS011;14732;51.074;3.788;2022-12-18T10:13:37;20.67;;;10.70;;
27225;SDS011;14732;51.074;3.788;2022-12-18T10:27:36;23.98;;;11.32;;
27225;SDS011;14732;51.074;3.788;2022-12-18T10:30:04;23.83;;;11.98;;
27225;SDS011;14732;51.074;3.788;2022-12-18T10:32:39;22.60;;;11.48;;
27225;SDS011;14732;51.074;3.788;2022-12-18T10:35:04;23.25;;;11.95;;
27225;SDS011;14732;51.074;3.788;2022-12-18T10:37:36;22.05;;;12.20;;
27225;SDS011;14732;51.074;3.788;2022-12-18T10:40:26;25.52;;;11.80;;
27225;SDS011;14732;51.074;3.788;2022-12-18T10:43:05;25.17;;;12.45;;
27225;SDS011;14732;51.074;3.788;2022-12-18T10:45:36;22.98;;;12.13;;
27225;SDS011;14732;51.074;3.788;2022-12-18T10:48:02;26.42;;;13.00;;
27225;SDS011;14732;51.074;3.788;2022-12-18T10:50:30;22.83;;;12.35;;
27225;SDS011;14732;51.074;3.788;2022-12-18T10:53:01;27.23;;;12.00;;
27225;SDS011;14732;51.074;3.788;2022-12-18T10:55:38;25.08;;;13.15;;
27225;SDS011;14732;51.074;3.788;2022-12-18T11:08:34;26.98;;;13.15;;
27225;SDS011;14732;51.074;3.788;2022-12-18T11:11:00;52.35;;;22.67;;
27225;SDS011;14732;51.074;3.788;2022-12-18T11:13:27;34.15;;;16.30;;
27225;SDS011;14732;51.074;3.788;2022-12-18T11:15:54;41.53;;;19.88;;
27225;SDS011;14732;51.074;3.788;2022-12-18T11:18:30;34.67;;;16.45;;
27225;SDS011;14732;51.074;3.788;2022-12-18T11:21:08;22.98;;;11.55;;
27225;SDS011;14732;51.074;3.788;2022-12-18T11:23:49;26.90;;;13.18;;
27225;SDS011;14732;51.074;3.788;2022-12-18T11:26:16;25.55;;;13.02;;
27225;SDS011;14732;51.074;3.788;2022-12-18T11:28:50;26.80;;;13.13;;
27225;SDS011;14732;51.074;3.788;2022-12-18T11:31:32;25.08;;;12.68;;
27225;SDS011;14732;51.074;3.788;2022-12-18T11:36:23;27.17;;;13.35;;
27225;SDS011;14732;51.074;3.788;2022-12-18T11:38:53;26.38;;;13.80;;
27225;SDS011;14732;51.074;3.788;2022-12-18T11:41:25;26.55;;;13.15;;
27225;SDS011;14732;51.074;3.788;2022-12-18T11:44:26;27.80;;;14.13;;
27225;SDS011;14732;51.074;3.788;2022-12-18T11:47:00;25.67;;;13.70;;
27225;SDS011;14732;51.074;3.788;2022-12-18T11:49:30;27.33;;;13.10;;
27225;SDS011;14732;51.074;3.788;2022-12-18T11:52:04;29.55;;;15.23;;
27225;SDS011;14732;51.074;3.788;2022-12-18T11:54:39;26.35;;;13.18;;
27225;SDS011;14732;51.074;3.788;2022-12-18T12:11:32;34.70;;;18.45;;
27225;SDS011;14732;51.074;3.788;2022-12-18T12:17:23;26.45;;;14.13;;
27225;SDS011;14732;51.074;3.788;2022-12-18T12:20:22;92.00;;;39.08;;
27225;SDS011;14732;51.074;3.788;2022-12-18T12:26:11;61.28;;;34.85;;
27225;SDS011;14732;51.074;3.788;2022-12-18T12:29:07;92.38;;;48.47;;
27225;SDS011;14732;51.074;3.788;2022-12-18T12:34:18;32.88;;;16.95;;
27225;SDS011;14732;51.074;3.788;2022-12-18T12:39:15;100.72;;;45.90;;
27225;SDS011;14732;51.074;3.788;2022-12-18T12:41:46;29.27;;;14.88;;
27225;SDS011;14732;51.074;3.788;2022-12-18T12:45:13;38.20;;;19.17;;
27225;SDS011;14732;51.074;3.788;2022-12-18T12:47:32;37.90;;;17.38;;
27225;SDS011;14732;51.074;3.788;2022-12-18T12:50:02;35.78;;;17.88;;
27225;SDS011;14732;51.074;3.788;2022-12-18T12:52:35;31.98;;;17.60;;
27225;SDS011;14732;51.074;3.788;2022-12-18T12:55:07;34.33;;;15.43;;
27225;SDS011;14732;51.074;3.788;2022-12-18T12:57:42;27.08;;;14.77;;
27225;SDS011;14732;51.074;3.788;2022-12-18T13:00:13;30.52;;;15.45;;
27225;SDS011;14732;51.074;3.788;2022-12-18T13:02:47;35.33;;;16.73;;
27225;SDS011;14732;51.074;3.788;2022-12-18T13:08:09;29.63;;;15.00;;
27225;SDS011;14732;51.074;3.788;2022-12-18T13:10:40;31.40;;;15.32;;
27225;SDS011;14732;51.074;3.788;2022-12-18T13:13:07;30.13;;;15.15;;
27225;SDS011;14732;51.074;3.788;2022-12-18T13:15:42;33.22;;;15.98;;
27225;SDS011;14732;51.074;3.788;2022-12-18T13:18:27;31.85;;;16.02;;
27225;SDS011;14732;51.074;3.788;2022-12-18T13:25:49;32.50;;;15.43;;
27225;SDS011;14732;51.074;3.788;2022-12-18T13:36:48;35.95;;;17.77;;
27225;SDS011;14732;51.074;3.788;2022-12-18T13:41:47;34.23;;;17.20;;
27225;SDS011;14732;51.074;3.788;2022-12-18T13:46:50;32.00;;;16.30;;
27225;SDS011;14732;51.074;3.788;2022-12-18T13:49:21;34.75;;;16.83;;
27225;SDS011;14732;51.074;3.788;2022-12-18T13:51:50;36.72;;;16.75;;
27225;SDS011;14732;51.074;3.788;2022-12-18T13:56:58;31.90;;;16.23;;
27225;SDS011;14732;51.074;3.788;2022-12-18T13:59:25;34.70;;;17.70;;
27225;SDS011;14732;51.074;3.788;2022-12-18T14:02:07;39.33;;;17.20;;
27225;SDS011;14732;51.074;3.788;2022-12-18T14:04:38;33.47;;;17.20;;
27225;SDS011;14732;51.074;3.788;2022-12-18T14:07:05;37.70;;;17.77;;
27225;SDS011;14732;51.074;3.788;2022-12-18T14:09:36;38.38;;;17.73;;
27225;SDS011;14732;51.074;3.788;2022-12-18T14:12:06;50.58;;;21.85;;
27225;SDS011;14732;51.074;3.788;2022-12-18T14:14:58;48.00;;;22.33;;
27225;SDS011;14732;51.074;3.788;2022-12-18T14:17:24;64.70;;;31.15;;
27225;SDS011;14732;51.074;3.788;2022-12-18T14:19:49;147.90;;;54.67;;
27225;SDS011;14732;51.074;3.788;2022-12-18T14:22:20;105.72;;;40.05;;
27225;SDS011;14732;51.074;3.788;2022-12-18T14:30:39;45.08;;;20.83;;
27225;SDS011;14732;51.074;3.788;2022-12-18T14:33:10;41.05;;;18.42;;
27225;SDS011;14732;51.074;3.788;2022-12-18T14:35:43;43.38;;;19.02;;
27225;SDS011;14732;51.074;3.788;2022-12-18T14:40:56;37.90;;;17.60;;
27225;SDS011;14732;51.074;3.788;2022-12-18T14:43:23;41.20;;;18.05;;
27225;SDS011;14732;51.074;3.788;2022-12-18T14:45:49;38.33;;;18.38;;
27225;SDS011;14732;51.074;3.788;2022-12-18T14:48:17;35.42;;;18.15;;
27225;SDS011;14732;51.074;3.788;2022-12-18T14:50:56;38.90;;;17.90;;
27225;SDS011;14732;51.074;3.788;2022-12-18T14:53:44;39.30;;;18.58;;
27225;SDS011;14732;51.074;3.788;2022-12-18T14:56:31;39.33;;;18.08;;
27225;SDS011;14732;51.074;3.788;2022-12-18T14:59:06;38.63;;;18.65;;
27225;SDS011;14732;51.074;3.788;2022-12-18T15:01:45;40.45;;;17.40;;
27225;SDS011;14732;51.074;3.788;2022-12-18T15:04:27;38.33;;;18.25;;
27225;SDS011;14732;51.074;3.788;2022-12-18T15:07:02;40.35;;;18.23;;
27225;SDS011;14732;51.074;3.788;2022-12-18T15:09:34;40.10;;;17.33;;
27225;SDS011;14732;51.074;3.788;2022-12-18T15:12:00;38.83;;;17.65;;
27225;SDS011;14732;51.074;3.788;2022-12-18T15:17:03;42.80;;;17.73;;
27225;SDS011;14732;51.074;3.788;2022-12-18T15:19:35;43.60;;;18.30;;
27225;SDS011;14732;51.074;3.788;2022-12-18T15:22:04;39.75;;;18.33;;
27225;SDS011;14732;51.074;3.788;2022-12-18T15:24:42;37.42;;;17.50;;
27225;SDS011;14732;51.074;3.788;2022-12-18T15:27:19;39.22;;;17.15;;
27225;SDS011;14732;51.074;3.788;2022-12-18T15:29:58;40.17;;;17.98;;
27225;SDS011;14732;51.074;3.788;2022-12-18T15:32:34;38.80;;;17.83;;
27225;SDS011;14732;51.074;3.788;2022-12-18T15:37:46;41.90;;;18.48;;
27225;SDS011;14732;51.074;3.788;2022-12-18T15:40:16;45.65;;;21.23;;
27225;SDS011;14732;51.074;3.788;2022-12-18T15:42:44;40.90;;;19.48;;
27225;SDS011;14732;51.074;3.788;2022-12-18T15:45:29;40.95;;;18.67;;
27225;SDS011;14732;51.074;3.788;2022-12-18T15:47:55;81.45;;;35.95;;
27225;SDS011;14732;51.074;3.788;2022-12-18T15:50:21;42.65;;;18.33;;
27225;SDS011;14732;51.074;3.788;2022-12-18T15:52:47;43.67;;;20.65;;
27225;SDS011;14732;51.074;3.788;2022-12-18T15:55:19;58.73;;;31.10;;
27225;SDS011;14732;51.074;3.788;2022-12-18T15:58:05;42.90;;;19.35;;
27225;SDS011;14732;51.074;3.788;2022-12-18T16:00:32;36.83;;;17.58;;
27225;SDS011;14732;51.074;3.788;2022-12-18T16:03:00;38.88;;;18.00;;
27225;SDS011;14732;51.074;3.788;2022-12-18T16:05:26;36.03;;;18.52;;
27225;SDS011;14732;51.074;3.788;2022-12-18T16:07:52;46.03;;;17.73;;
27225;SDS011;14732;51.074;3.788;2022-12-18T16:10:18;38.90;;;17.95;;
27225;SDS011;14732;51.074;3.788;2022-12-18T16:12:45;37.60;;;17.40;;
27225;SDS011;14732;51.074;3.788;2022-12-18T16:15:12;37.05;;;17.88;;
27225;SDS011;14732;51.074;3.788;2022-12-18T16:17:39;36.83;;;16.58;;
27225;SDS011;14732;51.074;3.788;2022-12-18T16:20:06;36.97;;;16.52;;
27225;SDS011;14732;51.074;3.788;2022-12-18T16:22:42;36.58;;;16.88;;
27225;SDS011;14732;51.074;3.788;2022-12-18T16:27:42;38.25;;;17.38;;
27225;SDS011;14732;51.074;3.788;2022-12-18T16:30:12;37.83;;;17.10;;
27225;SDS011;14732;51.074;3.788;2022-12-18T16:32:43;41.25;;;19.23;;
27225;SDS011;14732;51.074;3.788;2022-12-18T16:35:09;41.17;;;17.02;;
27225;SDS011;14732;51.074;3.788;2022-12-18T16:37:39;38.78;;;16.83;;
27225;SDS011;14732;51.074;3.788;2022-12-18T16:40:09;41.08;;;17.15;;
27225;SDS011;14732;51.074;3.788;2022-12-18T16:42:37;42.13;;;17.40;;
27225;SDS011;14732;51.074;3.788;2022-12-18T16:45:05;40.20;;;17.60;;
27225;SDS011;14732;51.074;3.788;2022-12-18T16:47:32;37.45;;;16.08;;
27225;SDS011;14732;51.074;3.788;2022-12-18T16:49:58;38.53;;;16.67;;
27225;SDS011;14732;51.074;3.788;2022-12-18T16:52:25;37.17;;;16.55;;
27225;SDS011;14732;51.074;3.788;2022-12-18T16:54:50;37.85;;;16.85;;
27225;SDS011;14732;51.074;3.788;2022-12-18T16:57:17;40.40;;;15.90;;